CMA CGM Nevada — 9HA3474 — position and weather

sailwx.info

Track history (hours):
 
Tides and Currents Weather Stations Pressure Air Temp Water Temp Dewpoint Dewpoint Depression Visibility Wind Speed Wind Dir Waves Ship Positions

CMA CGM Nevada

Last reported at 2017-Oct-16 06:00 UTC. Time now 2017-Oct-19 03:41 UTC.
Position N 25°06' E 035°48'.

Length 366 m; draft 13.8 m.

Type: Ship (hazmat cat A). MMSI: 229639000.

Wind from 320 at 19 knots

Barometer 1014.9 mb
Air temperature 24.0 ° C
Visibility: greater than 10.8 NM
Dewpoint 22.5 ° C
Water temperature 28.0 ° C

Date/timePositionNaut miles runAvg speedWind from/ knotsBaromVisibWave heightAir tempDewpointWater temp
2017-Oct-16 06:00N 25°06' E 035°48'51512.3 320 / 191014.910.8 24.022.528.0
2017-Oct-14 12:00N 32°12' E 030°18'   300 / 101017.110.8 24.022.5
2017-Oct-11 22:27N 35°42' E 014°59'612.7
2017-Oct-11 22:00N 35°43' E 014°52'612.6
2017-Oct-11 21:30N 35°45' E 014°45'612.7
2017-Oct-11 21:00N 35°47' E 014°38'5 8.8
2017-Oct-11 20:29N 35°49' E 014°33'1 1.0
2017-Oct-11 19:58N 35°49' E 014°32'0 0.0
2017-Oct-11 16:36N 35°49' E 014°32'0 0.0
2017-Oct-10 22:57N 35°49' E 014°32'0 0.0
2017-Oct-10 22:27N 35°49' E 014°32'0 0.0
2017-Oct-10 22:00N 35°49' E 014°32'0 0.0
2017-Oct-10 19:04N 35°49' E 014°32'0 0.1
2017-Oct-10 18:54N 35°49' E 014°32'0 1.2
2017-Oct-10 18:30N 35°49' E 014°33'3 6.2
2017-Oct-10 18:00N 35°48' E 014°36'1 2.0
2017-Oct-10 17:30N 35°47' E 014°37'0 0.9
2017-Oct-10 17:00N 35°47' E 014°37'3 6.2
2017-Oct-10 16:30N 35°45' E 014°40'1 1.7
2017-Oct-10 15:59N 35°44' E 014°40'0 0.3
2017-Oct-10 15:29N 35°44' E 014°40'1 2.3
2017-Oct-10 15:00N 35°44' E 014°42'1 1.0
2017-Oct-10 14:00N 35°44' E 014°43'1 1.1
2017-Oct-10 13:30N 35°44' E 014°42'0 1.0
2017-Oct-10 13:00N 35°43' E 014°41'1 1.0
2017-Oct-10 12:30N 35°44' E 014°41'0 1.0
2017-Oct-10 12:00N 35°44' E 014°40'0 0.8
2017-Oct-10 11:30N 35°44' E 014°40'0 0.4
2017-Oct-10 11:00N 35°44' E 014°40'1 1.5
2017-Oct-10 10:30N 35°43' E 014°39'511.1
2017-Oct-10 10:00N 35°44' E 014°32'612.6
2017-Oct-10 09:30N 35°45' E 014°24'612.2
2017-Oct-10 09:00N 35°47' E 014°17'612.5
2017-Oct-10 08:31N 35°50' E 014°11'612.6
2017-Oct-10 08:00N 35°54' E 014°04'612.7
2017-Oct-10 07:30N 35°57' E 013°58'612.7
2017-Oct-10 07:00N 36°00' E 013°51'612.6
2017-Oct-10 06:30N 36°04' E 013°45'612.3
2017-Oct-10 06:00N 36°07' E 013°38'612.2
2017-Oct-10 05:28N 36°11' E 013°32'54815.4
2017-Oct-08 18:00N 36°54' E 002°12'510.8 110 / 121020.510.8 25.022.025.0
2017-Oct-08 17:34N 36°57' E 002°07'417.8
2017-Oct-08 17:21N 36°56' E 002°03'2917.7
2017-Oct-08 15:42N 36°51' E 001°26'317.4
2017-Oct-08 15:30N 36°50' E 001°22'3817.0
2017-Oct-08 13:16N 36°44' E 000°36'1517.5
2017-Oct-08 12:26N 36°41' E 000°18'32418.3
2017-Oct-07 18:40N 35°56' W 006°21'517.4
2017-Oct-07 18:24N 35°57' W 006°27'817.1
2017-Oct-07 17:57N 35°59' W 006°36'717.0
2017-Oct-07 17:30N 36°01' W 006°45'917.1
2017-Oct-07 17:00N 36°03' W 006°55'917.2
2017-Oct-07 16:30N 36°06' W 007°05'917.4
2017-Oct-07 16:00N 36°08' W 007°16'917.6
2017-Oct-07 15:30N 36°11' W 007°26'918.0
2017-Oct-07 15:00N 36°13' W 007°37'918.2
2017-Oct-07 14:30N 36°16' W 007°48'917.9
2017-Oct-07 14:00N 36°18' W 007°58'917.9
2017-Oct-07 13:30N 36°20' W 008°09'918.2
2017-Oct-07 13:00N 36°22' W 008°20'918.1
2017-Oct-07 12:30N 36°24' W 008°31'918.4
2017-Oct-07 12:00N 36°26' W 008°42'918.3
2017-Oct-07 11:30N 36°29' W 008°53'918.5
2017-Oct-07 11:00N 36°31' W 009°04'918.6
2017-Oct-07 10:30N 36°34' W 009°15'917.8
2017-Oct-07 10:00N 36°40' W 009°24'917.7
2017-Oct-07 09:30N 36°46' W 009°31'917.4
2017-Oct-07 09:00N 36°54' W 009°35'917.6
2017-Oct-07 08:30N 37°03' W 009°38'917.7
2017-Oct-07 08:01N 37°11' W 009°40'918.0
2017-Oct-07 07:30N 37°20' W 009°43'917.8
2017-Oct-07 07:00N 37°29' W 009°45'918.1
2017-Oct-07 06:31N 37°38' W 009°48'918.2
2017-Oct-07 06:00N 37°46' W 009°50'918.5
2017-Oct-07 05:31N 37°55' W 009°53'918.2
2017-Oct-07 05:00N 38°04' W 009°55'917.6
2017-Oct-07 04:30N 38°13' W 009°57'917.4
2017-Oct-07 04:00N 38°21' W 009°60'917.4
2017-Oct-07 03:30N 38°30' W 010°02'918.2
2017-Oct-07 03:00N 38°39' W 010°04'918.2
2017-Oct-07 02:30N 38°48' W 010°05'918.0
2017-Oct-07 02:01N 38°57' W 010°05'917.4
2017-Oct-07 01:30N 39°06' W 010°06'918.0
2017-Oct-07 01:01N 39°15' W 010°06'918.3
2017-Oct-07 00:30N 39°24' W 010°06'918.3
2017-Oct-07 00:01N 39°33' W 010°06'917.9
2017-Oct-06 23:31N 39°42' W 010°06'917.9
2017-Oct-06 23:01N 39°51' W 010°07'917.9
2017-Oct-06 22:31N 39°60' W 010°07'918.0
2017-Oct-06 22:00N 40°09' W 010°08'917.8
2017-Oct-06 21:31N 40°18' W 010°08'918.1
2017-Oct-06 21:01N 40°27' W 010°08'918.0
2017-Oct-06 20:30N 40°36' W 010°08'918.1
2017-Oct-06 20:00N 40°45' W 010°08'918.4
2017-Oct-06 19:30N 40°54' W 010°08'918.5
2017-Oct-06 19:01N 41°03' W 010°08'918.3
2017-Oct-06 18:30N 41°12' W 010°08'918.4
2017-Oct-06 18:01N 41°22' W 010°08'918.4
2017-Oct-06 17:31N 41°31' W 010°08'918.1
2017-Oct-06 17:01N 41°40' W 010°08'917.9
2017-Oct-06 16:30N 41°49' W 010°08'918.0
2017-Oct-06 16:00N 41°58' W 010°08'917.9
2017-Oct-06 15:31N 42°07' W 010°08'917.7
2017-Oct-06 15:01N 42°16' W 010°09'4117.9
2017-Oct-06 12:43N 42°57' W 010°07'  
Track history (hours):
 
Tides and Currents Weather Stations Pressure Air Temp Water Temp Dewpoint Dewpoint Depression Visibility Wind Speed Wind Dir Waves Ship Positions

CMA CGM Nevada

Last reported at 2017-Oct-16 06:00 UTC. Time now 2017-Oct-19 03:41 UTC.
Position N 25°06' E 035°48'.

Length 366 m; draft 13.8 m.

Type: Ship (hazmat cat A). MMSI: 229639000.

Wind from 320 at 19 knots

Barometer 1014.9 mb
Air temperature 24.0 ° C
Visibility: greater than 10.8 NM
Dewpoint 22.5 ° C
Water temperature 28.0 ° C

Date/timePositionNaut miles runAvg speedWind from/ knotsBaromVisibWave heightAir tempDewpointWater temp
2017-Oct-16 06:00N 25°06' E 035°48'51512.3 320 / 191014.910.8 24.022.528.0
2017-Oct-14 12:00N 32°12' E 030°18'   300 / 101017.110.8 24.022.5
2017-Oct-11 22:27N 35°42' E 014°59'612.7
2017-Oct-11 22:00N 35°43' E 014°52'612.6
2017-Oct-11 21:30N 35°45' E 014°45'612.7
2017-Oct-11 21:00N 35°47' E 014°38'5 8.8
2017-Oct-11 20:29N 35°49' E 014°33'1 1.0
2017-Oct-11 19:58N 35°49' E 014°32'0 0.0
2017-Oct-11 16:36N 35°49' E 014°32'0 0.0
2017-Oct-10 22:57N 35°49' E 014°32'0 0.0
2017-Oct-10 22:27N 35°49' E 014°32'0 0.0
2017-Oct-10 22:00N 35°49' E 014°32'0 0.0
2017-Oct-10 19:04N 35°49' E 014°32'0 0.1
2017-Oct-10 18:54N 35°49' E 014°32'0 1.2
2017-Oct-10 18:30N 35°49' E 014°33'3 6.2
2017-Oct-10 18:00N 35°48' E 014°36'1 2.0
2017-Oct-10 17:30N 35°47' E 014°37'0 0.9
2017-Oct-10 17:00N 35°47' E 014°37'3 6.2
2017-Oct-10 16:30N 35°45' E 014°40'1 1.7
2017-Oct-10 15:59N 35°44' E 014°40'0 0.3
2017-Oct-10 15:29N 35°44' E 014°40'1 2.3
2017-Oct-10 15:00N 35°44' E 014°42'1 1.0
2017-Oct-10 14:00N 35°44' E 014°43'1 1.1
2017-Oct-10 13:30N 35°44' E 014°42'0 1.0
2017-Oct-10 13:00N 35°43' E 014°41'1 1.0
2017-Oct-10 12:30N 35°44' E 014°41'0 1.0
2017-Oct-10 12:00N 35°44' E 014°40'0 0.8
2017-Oct-10 11:30N 35°44' E 014°40'0 0.4
2017-Oct-10 11:00N 35°44' E 014°40'1 1.5
2017-Oct-10 10:30N 35°43' E 014°39'511.1
2017-Oct-10 10:00N 35°44' E 014°32'612.6
2017-Oct-10 09:30N 35°45' E 014°24'612.2
2017-Oct-10 09:00N 35°47' E 014°17'612.5
2017-Oct-10 08:31N 35°50' E 014°11'612.6
2017-Oct-10 08:00N 35°54' E 014°04'612.7
2017-Oct-10 07:30N 35°57' E 013°58'612.7
2017-Oct-10 07:00N 36°00' E 013°51'612.6
2017-Oct-10 06:30N 36°04' E 013°45'612.3
2017-Oct-10 06:00N 36°07' E 013°38'612.2
2017-Oct-10 05:28N 36°11' E 013°32'54815.4
2017-Oct-08 18:00N 36°54' E 002°12'510.8 110 / 121020.510.8 25.022.025.0
2017-Oct-08 17:34N 36°57' E 002°07'417.8
2017-Oct-08 17:21N 36°56' E 002°03'2917.7
2017-Oct-08 15:42N 36°51' E 001°26'317.4
2017-Oct-08 15:30N 36°50' E 001°22'3817.0
2017-Oct-08 13:16N 36°44' E 000°36'1517.5
2017-Oct-08 12:26N 36°41' E 000°18'32418.3
2017-Oct-07 18:40N 35°56' W 006°21'517.4
2017-Oct-07 18:24N 35°57' W 006°27'817.1
2017-Oct-07 17:57N 35°59' W 006°36'717.0
2017-Oct-07 17:30N 36°01' W 006°45'917.1
2017-Oct-07 17:00N 36°03' W 006°55'917.2
2017-Oct-07 16:30N 36°06' W 007°05'917.4
2017-Oct-07 16:00N 36°08' W 007°16'917.6
2017-Oct-07 15:30N 36°11' W 007°26'918.0
2017-Oct-07 15:00N 36°13' W 007°37'918.2
2017-Oct-07 14:30N 36°16' W 007°48'917.9
2017-Oct-07 14:00N 36°18' W 007°58'917.9
2017-Oct-07 13:30N 36°20' W 008°09'918.2
2017-Oct-07 13:00N 36°22' W 008°20'918.1
2017-Oct-07 12:30N 36°24' W 008°31'918.4
2017-Oct-07 12:00N 36°26' W 008°42'918.3
2017-Oct-07 11:30N 36°29' W 008°53'918.5
2017-Oct-07 11:00N 36°31' W 009°04'918.6
2017-Oct-07 10:30N 36°34' W 009°15'917.8
2017-Oct-07 10:00N 36°40' W 009°24'917.7
2017-Oct-07 09:30N 36°46' W 009°31'917.4
2017-Oct-07 09:00N 36°54' W 009°35'917.6
2017-Oct-07 08:30N 37°03' W 009°38'917.7
2017-Oct-07 08:01N 37°11' W 009°40'918.0
2017-Oct-07 07:30N 37°20' W 009°43'917.8
2017-Oct-07 07:00N 37°29' W 009°45'918.1
2017-Oct-07 06:31N 37°38' W 009°48'918.2
2017-Oct-07 06:00N 37°46' W 009°50'918.5
2017-Oct-07 05:31N 37°55' W 009°53'918.2
2017-Oct-07 05:00N 38°04' W 009°55'917.6
2017-Oct-07 04:30N 38°13' W 009°57'917.4
2017-Oct-07 04:00N 38°21' W 009°60'917.4
2017-Oct-07 03:30N 38°30' W 010°02'918.2
2017-Oct-07 03:00N 38°39' W 010°04'918.2
2017-Oct-07 02:30N 38°48' W 010°05'918.0
2017-Oct-07 02:01N 38°57' W 010°05'917.4
2017-Oct-07 01:30N 39°06' W 010°06'918.0
2017-Oct-07 01:01N 39°15' W 010°06'918.3
2017-Oct-07 00:30N 39°24' W 010°06'918.3
2017-Oct-07 00:01N 39°33' W 010°06'917.9
2017-Oct-06 23:31N 39°42' W 010°06'917.9
2017-Oct-06 23:01N 39°51' W 010°07'917.9
2017-Oct-06 22:31N 39°60' W 010°07'918.0
2017-Oct-06 22:00N 40°09' W 010°08'917.8
2017-Oct-06 21:31N 40°18' W 010°08'918.1
2017-Oct-06 21:01N 40°27' W 010°08'918.0
2017-Oct-06 20:30N 40°36' W 010°08'918.1
2017-Oct-06 20:00N 40°45' W 010°08'918.4
2017-Oct-06 19:30N 40°54' W 010°08'918.5
2017-Oct-06 19:01N 41°03' W 010°08'918.3
2017-Oct-06 18:30N 41°12' W 010°08'918.4
2017-Oct-06 18:01N 41°22' W 010°08'918.4
2017-Oct-06 17:31N 41°31' W 010°08'918.1
2017-Oct-06 17:01N 41°40' W 010°08'917.9
2017-Oct-06 16:30N 41°49' W 010°08'918.0
2017-Oct-06 16:00N 41°58' W 010°08'917.9
2017-Oct-06 15:31N 42°07' W 010°08'917.7
2017-Oct-06 15:01N 42°16' W 010°09'4117.9
2017-Oct-06 12:43N 42°57' W 010°07'  

Dump ship's entire track history